< < Back
Terminal Aerodrome Forecast


Current Version              Previous Versions:   1  2  3  4  5  6  7  8  9  

Terminal Aerodrome Forecast

739
FTUS44 KHUN 031720
TAFHSV
TAF
KHSV 031720Z 0318/0418 32010KT P6SM SCT025 BKN040
      TEMPO 0318/0320 BKN025
     FM040500 VRB03KT P6SM FEW060
     FM041500 28012G20KT P6SM SCT050=

Latest METAR

373
SAUS80 KWBC 031800 RRA
MTRHSV
METAR KHSV 031753Z 32009KT 10SM SCT035 21/12 A2995 RMK AO2 SLP137
T02060117 10217 20156 58008


USA.gov is the U.S. government's official web portal to all federal, state and local government web resources and services.